Ivan — CRXJ — position and weather

sailwx.info

Track history (hours):
 
Tides and Currents Weather Stations Pressure Air Temp Water Temp Dewpoint Dewpoint Depression Visibility Wind Speed Wind Dir Waves Ship Positions

Ivan

Last reported at 2017-Dec-02 13:50 UTC. Time now 2017-Dec-12 18:08 UTC.
Position N 39°26' W 009°46'.
Warning: this ship's position is 10 days out of date.

Length 100 m; draft 5.6 m.

Type: Cargo ship. MMSI: 255786000.

Date/timePositionNaut miles runAvg speedWind from/ knotsBaromVisibWave heightAir tempDewpointWater temp
2017-Dec-02 13:50N 39°26' W 009°46'3 8.7
2017-Dec-02 13:30N 39°23' W 009°46'5 9.0
2017-Dec-02 13:00N 39°19' W 009°47'4 9.0
2017-Dec-02 12:30N 39°15' W 009°47'4 8.7
2017-Dec-02 12:00N 39°10' W 009°48'4 9.0
2017-Dec-02 11:30N 39°06' W 009°48'4 8.9
2017-Dec-02 11:00N 39°01' W 009°49'4 8.8
2017-Dec-02 10:30N 38°57' W 009°50'4 8.5
2017-Dec-02 10:00N 38°53' W 009°50'4 8.9
2017-Dec-02 09:30N 38°48' W 009°50'4 8.6
2017-Dec-02 09:00N 38°44' W 009°50'4 8.7
2017-Dec-02 08:30N 38°40' W 009°50'4 8.7
2017-Dec-02 08:00N 38°35' W 009°50'4 9.0
2017-Dec-02 07:30N 38°31' W 009°49'4 8.9
2017-Dec-02 07:00N 38°27' W 009°47'4 8.8
2017-Dec-02 06:30N 38°22' W 009°46'4 8.7
2017-Dec-02 06:00N 38°18' W 009°45'5 8.5
2017-Dec-02 05:28N 38°14' W 009°43'4 8.5
2017-Dec-02 05:00N 38°10' W 009°42'5 8.6
2017-Dec-02 04:26N 38°05' W 009°41'4 8.7
2017-Dec-02 04:00N 38°01' W 009°39'4 8.5
2017-Dec-02 03:30N 37°57' W 009°38'9 8.3
2017-Dec-02 02:24N 37°48' W 009°35'219 8.5
2017-Dec-01 00:32N 35°58' W 005°39'010.5
2017-Dec-01 00:30N 35°58' W 005°38'510.2
2017-Dec-01 00:00N 35°58' W 005°32'257 7.5
2017-Nov-29 13:34N 38°21' W 009°60'111.5
2017-Nov-29 13:30N 38°21' W 009°60'811.2
2017-Nov-29 12:47N 38°29' W 010°02'511.2
2017-Nov-29 12:18N 38°34' W 010°04'311.4
2017-Nov-29 12:00N 38°38' W 010°05'611.6
2017-Nov-29 11:30N 38°44' W 010°05'611.5
2017-Nov-29 11:00N 38°49' W 010°05'611.3
2017-Nov-29 10:30N 38°55' W 010°04'611.3
2017-Nov-29 10:00N 39°00' W 010°02'511.1
2017-Nov-29 09:30N 39°06' W 010°00'611.2
2017-Nov-29 09:00N 39°11' W 009°59'510.8
2017-Nov-29 08:30N 39°16' W 009°57'611.2
2017-Nov-29 08:00N 39°22' W 009°55'  
2017-Nov-25 18:21N 39°34' W 009°44'4 9.2
2017-Nov-25 17:56N 39°31' W 009°45'4 9.2
2017-Nov-25 17:30N 39°27' W 009°46'5 9.2
2017-Nov-25 17:00N 39°22' W 009°47'5 9.2
2017-Nov-25 16:30N 39°18' W 009°47'5 9.4
2017-Nov-25 16:00N 39°13' W 009°48'5 9.4
2017-Nov-25 15:30N 39°08' W 009°49'5 9.3
2017-Nov-25 15:00N 39°04' W 009°49'5 9.4
2017-Nov-25 14:30N 38°59' W 009°50'510.0
2017-Nov-25 14:00N 38°54' W 009°50'5 9.9
2017-Nov-25 13:30N 38°49' W 009°50'510.4
2017-Nov-25 13:00N 38°44' W 009°50'510.0
2017-Nov-25 12:31N 38°39' W 009°49'5 9.7
2017-Nov-25 12:00N 38°34' W 009°49'510.2
2017-Nov-25 11:30N 38°29' W 009°48'510.5
2017-Nov-25 11:00N 38°24' W 009°46'510.4
2017-Nov-25 10:30N 38°19' W 009°45'510.6
2017-Nov-25 09:59N 38°14' W 009°43'510.4
2017-Nov-25 09:30N 38°09' W 009°41'510.3
2017-Nov-25 09:00N 38°04' W 009°40'510.5
2017-Nov-25 08:30N 37°59' W 009°38'510.4
2017-Nov-25 08:00N 37°54' W 009°37'810.6
2017-Nov-25 07:14N 37°46' W 009°34'310.7
2017-Nov-25 06:59N 37°43' W 009°33'510.8
2017-Nov-25 06:29N 37°38' W 009°32'6010.0
2017-Nov-25 00:31N 36°43' W 009°01'010.6
2017-Nov-25 00:29N 36°43' W 009°00'710.8
2017-Nov-24 23:52N 36°41' W 008°52'410.8
2017-Nov-24 23:30N 36°40' W 008°48'911.1
2017-Nov-24 22:43N 36°37' W 008°37'311.1
2017-Nov-24 22:25N 36°36' W 008°33'510.5
2017-Nov-24 21:56N 36°34' W 008°28'510.8
2017-Nov-24 21:29N 36°33' W 008°22'611.0
2017-Nov-24 20:59N 36°31' W 008°15'510.6
2017-Nov-24 20:28N 36°30' W 008°09'510.6
2017-Nov-24 20:00N 36°28' W 008°03'510.3
2017-Nov-24 19:30N 36°26' W 007°57'610.5
2017-Nov-24 18:58N 36°24' W 007°50'510.6
2017-Nov-24 18:30N 36°23' W 007°45'610.8
2017-Nov-24 17:59N 36°21' W 007°38'710.5
2017-Nov-24 17:19N 36°19' W 007°30'410.4
2017-Nov-24 16:58N 36°18' W 007°25'510.5
2017-Nov-24 16:30N 36°16' W 007°20'510.3
2017-Nov-24 16:00N 36°15' W 007°14'510.5
2017-Nov-24 15:30N 36°13' W 007°08'510.5
2017-Nov-24 15:00N 36°11' W 007°01'510.4
2017-Nov-24 14:30N 36°10' W 006°55'510.4
2017-Nov-24 14:00N 36°08' W 006°49'510.6
2017-Nov-24 13:30N 36°07' W 006°43'510.6
2017-Nov-24 13:00N 36°05' W 006°36'3510.2
2017-Nov-24 09:32N 35°58' W 005°54'14 8.7
2017-Nov-24 07:55N 35°58' W 005°36'3 8.1
2017-Nov-24 07:30N 35°58' W 005°32'73 2.8
2017-Nov-23 05:49N 36°05' W 007°02'411.4
2017-Nov-23 05:30N 36°06' W 007°06'611.5
2017-Nov-23 05:00N 36°08' W 007°13'611.5
2017-Nov-23 04:30N 36°09' W 007°20'611.4
2017-Nov-23 04:00N 36°11' W 007°27'611.1
2017-Nov-23 03:30N 36°12' W 007°33'711.1
2017-Nov-23 02:51N 36°14' W 007°42'611.4
2017-Nov-23 02:21N 36°16' W 007°49'411.2
2017-Nov-23 02:00N 36°17' W 007°54'611.0
2017-Nov-23 01:30N 36°18' W 008°00'2311.3
2017-Nov-22 23:26N 36°24' W 008°28'1311.1
2017-Nov-22 22:18N 36°27' W 008°43'311.4
2017-Nov-22 21:59N 36°28' W 008°48'711.2
2017-Nov-22 21:20N 36°30' W 008°57'411.1
2017-Nov-22 21:00N 36°31' W 009°01'611.2
2017-Nov-22 20:30N 36°33' W 009°07'611.2
2017-Nov-22 20:00N 36°34' W 009°14'1010.6
2017-Nov-22 19:06N 36°40' W 009°24'  
Track history (hours):
 
Tides and Currents Weather Stations Pressure Air Temp Water Temp Dewpoint Dewpoint Depression Visibility Wind Speed Wind Dir Waves Ship Positions

Ivan

Last reported at 2017-Dec-02 13:50 UTC. Time now 2017-Dec-12 18:08 UTC.
Position N 39°26' W 009°46'.
Warning: this ship's position is 10 days out of date.

Length 100 m; draft 5.6 m.

Type: Cargo ship. MMSI: 255786000.

Date/timePositionNaut miles runAvg speedWind from/ knotsBaromVisibWave heightAir tempDewpointWater temp
2017-Dec-02 13:50N 39°26' W 009°46'3 8.7
2017-Dec-02 13:30N 39°23' W 009°46'5 9.0
2017-Dec-02 13:00N 39°19' W 009°47'4 9.0
2017-Dec-02 12:30N 39°15' W 009°47'4 8.7
2017-Dec-02 12:00N 39°10' W 009°48'4 9.0
2017-Dec-02 11:30N 39°06' W 009°48'4 8.9
2017-Dec-02 11:00N 39°01' W 009°49'4 8.8
2017-Dec-02 10:30N 38°57' W 009°50'4 8.5
2017-Dec-02 10:00N 38°53' W 009°50'4 8.9
2017-Dec-02 09:30N 38°48' W 009°50'4 8.6
2017-Dec-02 09:00N 38°44' W 009°50'4 8.7
2017-Dec-02 08:30N 38°40' W 009°50'4 8.7
2017-Dec-02 08:00N 38°35' W 009°50'4 9.0
2017-Dec-02 07:30N 38°31' W 009°49'4 8.9
2017-Dec-02 07:00N 38°27' W 009°47'4 8.8
2017-Dec-02 06:30N 38°22' W 009°46'4 8.7
2017-Dec-02 06:00N 38°18' W 009°45'5 8.5
2017-Dec-02 05:28N 38°14' W 009°43'4 8.5
2017-Dec-02 05:00N 38°10' W 009°42'5 8.6
2017-Dec-02 04:26N 38°05' W 009°41'4 8.7
2017-Dec-02 04:00N 38°01' W 009°39'4 8.5
2017-Dec-02 03:30N 37°57' W 009°38'9 8.3
2017-Dec-02 02:24N 37°48' W 009°35'219 8.5
2017-Dec-01 00:32N 35°58' W 005°39'010.5
2017-Dec-01 00:30N 35°58' W 005°38'510.2
2017-Dec-01 00:00N 35°58' W 005°32'257 7.5
2017-Nov-29 13:34N 38°21' W 009°60'111.5
2017-Nov-29 13:30N 38°21' W 009°60'811.2
2017-Nov-29 12:47N 38°29' W 010°02'511.2
2017-Nov-29 12:18N 38°34' W 010°04'311.4
2017-Nov-29 12:00N 38°38' W 010°05'611.6
2017-Nov-29 11:30N 38°44' W 010°05'611.5
2017-Nov-29 11:00N 38°49' W 010°05'611.3
2017-Nov-29 10:30N 38°55' W 010°04'611.3
2017-Nov-29 10:00N 39°00' W 010°02'511.1
2017-Nov-29 09:30N 39°06' W 010°00'611.2
2017-Nov-29 09:00N 39°11' W 009°59'510.8
2017-Nov-29 08:30N 39°16' W 009°57'611.2
2017-Nov-29 08:00N 39°22' W 009°55'  
2017-Nov-25 18:21N 39°34' W 009°44'4 9.2
2017-Nov-25 17:56N 39°31' W 009°45'4 9.2
2017-Nov-25 17:30N 39°27' W 009°46'5 9.2
2017-Nov-25 17:00N 39°22' W 009°47'5 9.2
2017-Nov-25 16:30N 39°18' W 009°47'5 9.4
2017-Nov-25 16:00N 39°13' W 009°48'5 9.4
2017-Nov-25 15:30N 39°08' W 009°49'5 9.3
2017-Nov-25 15:00N 39°04' W 009°49'5 9.4
2017-Nov-25 14:30N 38°59' W 009°50'510.0
2017-Nov-25 14:00N 38°54' W 009°50'5 9.9
2017-Nov-25 13:30N 38°49' W 009°50'510.4
2017-Nov-25 13:00N 38°44' W 009°50'510.0
2017-Nov-25 12:31N 38°39' W 009°49'5 9.7
2017-Nov-25 12:00N 38°34' W 009°49'510.2
2017-Nov-25 11:30N 38°29' W 009°48'510.5
2017-Nov-25 11:00N 38°24' W 009°46'510.4
2017-Nov-25 10:30N 38°19' W 009°45'510.6
2017-Nov-25 09:59N 38°14' W 009°43'510.4
2017-Nov-25 09:30N 38°09' W 009°41'510.3
2017-Nov-25 09:00N 38°04' W 009°40'510.5
2017-Nov-25 08:30N 37°59' W 009°38'510.4
2017-Nov-25 08:00N 37°54' W 009°37'810.6
2017-Nov-25 07:14N 37°46' W 009°34'310.7
2017-Nov-25 06:59N 37°43' W 009°33'510.8
2017-Nov-25 06:29N 37°38' W 009°32'6010.0
2017-Nov-25 00:31N 36°43' W 009°01'010.6
2017-Nov-25 00:29N 36°43' W 009°00'710.8
2017-Nov-24 23:52N 36°41' W 008°52'410.8
2017-Nov-24 23:30N 36°40' W 008°48'911.1
2017-Nov-24 22:43N 36°37' W 008°37'311.1
2017-Nov-24 22:25N 36°36' W 008°33'510.5
2017-Nov-24 21:56N 36°34' W 008°28'510.8
2017-Nov-24 21:29N 36°33' W 008°22'611.0
2017-Nov-24 20:59N 36°31' W 008°15'510.6
2017-Nov-24 20:28N 36°30' W 008°09'510.6
2017-Nov-24 20:00N 36°28' W 008°03'510.3
2017-Nov-24 19:30N 36°26' W 007°57'610.5
2017-Nov-24 18:58N 36°24' W 007°50'510.6
2017-Nov-24 18:30N 36°23' W 007°45'610.8
2017-Nov-24 17:59N 36°21' W 007°38'710.5
2017-Nov-24 17:19N 36°19' W 007°30'410.4
2017-Nov-24 16:58N 36°18' W 007°25'510.5
2017-Nov-24 16:30N 36°16' W 007°20'510.3
2017-Nov-24 16:00N 36°15' W 007°14'510.5
2017-Nov-24 15:30N 36°13' W 007°08'510.5
2017-Nov-24 15:00N 36°11' W 007°01'510.4
2017-Nov-24 14:30N 36°10' W 006°55'510.4
2017-Nov-24 14:00N 36°08' W 006°49'510.6
2017-Nov-24 13:30N 36°07' W 006°43'510.6
2017-Nov-24 13:00N 36°05' W 006°36'3510.2
2017-Nov-24 09:32N 35°58' W 005°54'14 8.7
2017-Nov-24 07:55N 35°58' W 005°36'3 8.1
2017-Nov-24 07:30N 35°58' W 005°32'73 2.8
2017-Nov-23 05:49N 36°05' W 007°02'411.4
2017-Nov-23 05:30N 36°06' W 007°06'611.5
2017-Nov-23 05:00N 36°08' W 007°13'611.5
2017-Nov-23 04:30N 36°09' W 007°20'611.4
2017-Nov-23 04:00N 36°11' W 007°27'611.1
2017-Nov-23 03:30N 36°12' W 007°33'711.1
2017-Nov-23 02:51N 36°14' W 007°42'611.4
2017-Nov-23 02:21N 36°16' W 007°49'411.2
2017-Nov-23 02:00N 36°17' W 007°54'611.0
2017-Nov-23 01:30N 36°18' W 008°00'2311.3
2017-Nov-22 23:26N 36°24' W 008°28'1311.1
2017-Nov-22 22:18N 36°27' W 008°43'311.4
2017-Nov-22 21:59N 36°28' W 008°48'711.2
2017-Nov-22 21:20N 36°30' W 008°57'411.1
2017-Nov-22 21:00N 36°31' W 009°01'611.2
2017-Nov-22 20:30N 36°33' W 009°07'611.2
2017-Nov-22 20:00N 36°34' W 009°14'1010.6
2017-Nov-22 19:06N 36°40' W 009°24'  

Dump ship's entire track history